Time;durP1;ratioP1;P1;durP2;ratioP2;P2;SDS_P1;SDS_P2;PMS_P1;PMS_P2;Temp;Humidity;BMP_temperature;BMP_pressure;BME280_temperature;BME280_humidity;BME280_pressure;Samples;Min_cycle;Max_cycle;Signal;HPM_P1;HPM_P2
2021/12/02 00:02:12;;;;;;;3.38;2.10;;;;;;;;;;4969689;28;20186;-74
2021/12/02 00:04:43;;;;;;;7.13;2.35;;;;;;;;;;4953640;28;20574;-72
2021/12/02 00:07:11;;;;;;;12.32;2.33;;;;;;;;;;4972419;28;20043;-72
2021/12/02 00:09:39;;;;;;;7.07;2.08;;;;;;;;;;4955950;28;20698;-73
2021/12/02 00:12:08;;;;;;;5.45;2.40;;;;;;;;;;4972803;28;20078;-75
2021/12/02 00:14:47;;;;;;;4.40;1.70;;;;;;;;;;4940681;28;20228;-74
2021/12/02 00:17:23;;;;;;;4.57;1.90;;;;;;;;;;4972323;28;20138;-75
2021/12/02 00:22:52;;;;;;;4.18;1.92;;;;;;;;;;4993403;28;20054;-73
2021/12/02 00:25:21;;;;;;;5.68;1.45;;;;;;;;;;4976318;28;20050;-74
2021/12/02 00:27:49;;;;;;;4.32;1.63;;;;;;;;;;4992393;28;20065;-75
2021/12/02 00:30:18;;;;;;;7.88;1.75;;;;;;;;;;4992293;28;20089;-73
2021/12/02 00:32:47;;;;;;;6.20;1.55;;;;;;;;;;4976327;28;20497;-72
2021/12/02 00:35:16;;;;;;;8.00;1.75;;;;;;;;;;4992422;28;20046;-75
2021/12/02 00:37:44;;;;;;;14.15;1.88;;;;;;;;;;4991911;28;20058;-73
2021/12/02 00:40:12;;;;;;;3.95;1.42;;;;;;;;;;4992069;28;20081;-75
2021/12/02 00:42:40;;;;;;;4.20;1.60;;;;;;;;;;4993605;28;20038;-74
2021/12/02 00:45:07;;;;;;;3.55;1.40;;;;;;;;;;4975850;28;20053;-74
2021/12/02 00:47:38;;;;;;;6.07;1.70;;;;;;;;;;4993381;28;20433;-72
2021/12/02 00:50:06;;;;;;;3.50;1.67;;;;;;;;;;4993473;28;20038;-73
2021/12/02 00:52:36;;;;;;;4.18;1.23;;;;;;;;;;4991013;28;20070;-71
2021/12/02 00:55:04;;;;;;;6.18;1.23;;;;;;;;;;4992009;28;20073;-72
2021/12/02 00:57:32;;;;;;;4.93;1.48;;;;;;;;;;4992214;28;20053;-71
2021/12/02 01:00:02;;;;;;;2.38;1.10;;;;;;;;;;4991885;28;20413;-73
2021/12/02 01:02:29;;;;;;;6.93;1.50;;;;;;;;;;4993142;28;20050;-71
2021/12/02 01:04:57;;;;;;;1.98;0.90;;;;;;;;;;4991275;28;20057;-73
2021/12/02 01:07:24;;;;;;;4.60;1.10;;;;;;;;;;4992875;28;20047;-71
2021/12/02 01:09:52;;;;;;;1.42;0.88;;;;;;;;;;4991892;28;20074;-71
2021/12/02 01:12:19;;;;;;;3.45;1.25;;;;;;;;;;4975763;28;20480;-73
2021/12/02 01:14:47;;;;;;;8.85;1.40;;;;;;;;;;4992838;28;20055;-74
2021/12/02 01:17:15;;;;;;;3.60;1.33;;;;;;;;;;4975789;28;20054;-73
2021/12/02 01:19:42;;;;;;;6.28;1.23;;;;;;;;;;4992914;28;20042;-74
2021/12/02 01:22:11;;;;;;;2.75;0.82;;;;;;;;;;4992750;28;20493;-73
2021/12/02 01:24:40;;;;;;;5.07;1.20;;;;;;;;;;4993292;28;20039;-74
2021/12/02 01:27:09;;;;;;;3.10;1.50;;;;;;;;;;4993282;28;20402;-73
2021/12/02 01:29:38;;;;;;;3.65;1.05;;;;;;;;;;4992674;28;20038;-71
2021/12/02 01:32:07;;;;;;;2.30;1.08;;;;;;;;;;4993210;28;20038;-71
2021/12/02 01:34:35;;;;;;;8.48;1.00;;;;;;;;;;4992632;28;20049;-73
2021/12/02 01:37:03;;;;;;;4.70;1.10;;;;;;;;;;4975567;28;20049;-73
2021/12/02 01:39:31;;;;;;;5.32;1.50;;;;;;;;;;4992935;28;20129;-71
2021/12/02 01:42:01;;;;;;;7.47;1.10;;;;;;;;;;4993044;28;20058;-71
2021/12/02 01:44:29;;;;;;;5.28;1.02;;;;;;;;;;4993174;28;20042;-74
2021/12/02 01:47:00;;;;;;;3.50;1.25;;;;;;;;;;4993149;28;20038;-71
2021/12/02 01:49:31;;;;;;;3.10;1.08;;;;;;;;;;4992605;28;20065;-73
2021/12/02 01:52:00;;;;;;;3.58;1.23;;;;;;;;;;4992773;28;20050;-72
2021/12/02 01:54:27;;;;;;;3.13;1.27;;;;;;;;;;4991921;28;20589;-73
2021/12/02 01:57:04;;;;;;;3.95;1.33;;;;;;;;;;4993081;28;20453;-71
2021/12/02 01:59:34;;;;;;;3.28;1.17;;;;;;;;;;4995309;28;20130;-74
2021/12/02 02:02:04;;;;;;;7.40;1.10;;;;;;;;;;4996527;28;20035;-71
2021/12/02 02:04:32;;;;;;;5.03;1.15;;;;;;;;;;4986884;28;20050;-73
2021/12/02 02:07:01;;;;;;;8.20;1.23;;;;;;;;;;4979016;28;20050;-71
2021/12/02 02:09:30;;;;;;;6.93;1.10;;;;;;;;;;5015426;28;20133;-74
2021/12/02 02:11:58;;;;;;;4.50;1.27;;;;;;;;;;5015777;28;20120;-71
2021/12/02 02:14:26;;;;;;;3.70;1.27;;;;;;;;;;4997826;28;20076;-74
2021/12/02 02:16:58;;;;;;;2.80;1.20;;;;;;;;;;5015112;28;20038;-73
2021/12/02 02:19:30;;;;;;;5.15;1.45;;;;;;;;;;4997570;28;20046;-71
2021/12/02 02:21:58;;;;;;;4.57;1.40;;;;;;;;;;5015527;28;20125;-75
2021/12/02 02:24:26;;;;;;;5.55;1.50;;;;;;;;;;4997917;28;20041;-74
2021/12/02 02:26:53;;;;;;;4.18;1.70;;;;;;;;;;5015213;28;20068;-74
2021/12/02 02:29:22;;;;;;;4.60;1.40;;;;;;;;;;5014768;28;20042;-73
2021/12/02 02:31:50;;;;;;;6.03;1.80;;;;;;;;;;5014974;28;20042;-75
2021/12/02 02:34:21;;;;;;;7.82;2.15;;;;;;;;;;4997353;28;20408;-71
2021/12/02 02:36:52;;;;;;;6.15;1.42;;;;;;;;;;4997503;28;20073;-75
2021/12/02 02:39:20;;;;;;;5.15;1.40;;;;;;;;;;5015213;28;20104;-71
2021/12/02 02:41:56;;;;;;;4.80;1.45;;;;;;;;;;5015182;28;20042;-73
2021/12/02 02:44:24;;;;;;;2.35;1.38;;;;;;;;;;5015496;28;20502;-71
2021/12/02 02:46:51;;;;;;;5.25;1.15;;;;;;;;;;5014741;28;20037;-74
2021/12/02 02:49:19;;;;;;;7.18;1.23;;;;;;;;;;4997649;28;20042;-71
2021/12/02 02:51:47;;;;;;;6.72;1.52;;;;;;;;;;5014635;28;20066;-74
2021/12/02 02:54:16;;;;;;;3.30;1.15;;;;;;;;;;4981420;28;20050;-71
2021/12/02 02:56:56;;;;;;;4.25;1.15;;;;;;;;;;4999274;28;20049;-74
2021/12/02 02:59:35;;;;;;;4.32;1.08;;;;;;;;;;5014962;28;20073;-71
2021/12/02 03:02:28;;;;;;;5.15;1.83;;;;;;;;;;5014434;28;20438;-71
2021/12/02 03:07:43;;;;;;;5.30;1.52;;;;;;;;;;5014928;28;20061;-73
2021/12/02 03:17:50;;;;;;;2.72;1.33;;;;;;;;;;5014127;28;20046;-73
2021/12/02 03:20:17;;;;;;;4.95;1.30;;;;;;;;;;5014686;28;20049;-71
2021/12/02 03:22:45;;;;;;;5.03;1.55;;;;;;;;;;5014415;28;20531;-74
2021/12/02 03:25:12;;;;;;;3.35;1.00;;;;;;;;;;4996961;28;20080;-73
2021/12/02 03:27:40;;;;;;;3.83;1.35;;;;;;;;;;4996781;28;20409;-74
2021/12/02 03:30:08;;;;;;;3.80;1.23;;;;;;;;;;5013950;28;20057;-73
2021/12/02 03:32:37;;;;;;;3.60;1.30;;;;;;;;;;5014102;28;20045;-71
2021/12/02 03:35:06;;;;;;;3.55;1.60;;;;;;;;;;4996275;28;20547;-71
2021/12/02 03:37:34;;;;;;;4.28;1.38;;;;;;;;;;4996803;28;20100;-73
2021/12/02 03:40:02;;;;;;;2.17;1.15;;;;;;;;;;4996041;28;20148;-74
2021/12/02 03:42:30;;;;;;;7.03;1.42;;;;;;;;;;5014572;28;20053;-71
2021/12/02 03:44:57;;;;;;;8.65;3.42;;;;;;;;;;5013767;28;20081;-71
2021/12/02 03:47:25;;;;;;;7.32;2.30;;;;;;;;;;4996555;28;20037;-73
2021/12/02 03:49:53;;;;;;;5.18;2.45;;;;;;;;;;5014089;28;20593;-74
2021/12/02 03:52:20;;;;;;;4.15;2.28;;;;;;;;;;5013480;28;20125;-71
2021/12/02 03:54:48;;;;;;;4.53;2.20;;;;;;;;;;4996342;28;20082;-71
2021/12/02 03:57:15;;;;;;;5.38;3.10;;;;;;;;;;5014032;28;20045;-73
2021/12/02 03:59:43;;;;;;;5.93;2.47;;;;;;;;;;5013372;28;20042;-71
2021/12/02 04:02:10;;;;;;;6.80;2.22;;;;;;;;;;5013710;28;20077;-72
2021/12/02 04:04:38;;;;;;;6.05;3.58;;;;;;;;;;5013257;28;20129;-73
2021/12/02 04:07:06;;;;;;;14.38;6.00;;;;;;;;;;5014173;28;20045;-74
2021/12/02 04:09:38;;;;;;;2.85;1.70;;;;;;;;;;4995501;28;20046;-71
2021/12/02 04:12:13;;;;;;;2.70;2.30;;;;;;;;;;5013642;28;20042;-71
2021/12/02 04:14:47;;;;;;;6.70;3.35;;;;;;;;;;5012940;28;20273;-73
2021/12/02 04:17:17;;;;;;;5.60;2.58;;;;;;;;;;4995337;28;20516;-73
2021/12/02 04:19:45;;;;;;;3.03;2.05;;;;;;;;;;5013457;28;20046;-74
2021/12/02 04:22:13;;;;;;;2.42;2.08;;;;;;;;;;4996111;28;20045;-73
2021/12/02 04:24:41;;;;;;;6.70;3.15;;;;;;;;;;4979415;28;20080;-71
2021/12/02 04:27:08;;;;;;;1.20;1.10;;;;;;;;;;5013370;28;20040;-73
2021/12/02 04:29:36;;;;;;;2.45;1.35;;;;;;;;;;5012238;28;20042;-75
2021/12/02 04:32:04;;;;;;;3.60;1.50;;;;;;;;;;4995768;28;20034;-71
2021/12/02 04:34:32;;;;;;;5.07;1.98;;;;;;;;;;5013289;28;20512;-74
2021/12/02 04:36:59;;;;;;;3.63;1.90;;;;;;;;;;5013261;28;20042;-71
2021/12/02 04:39:27;;;;;;;4.22;2.33;;;;;;;;;;4995793;28;20060;-71
2021/12/02 04:41:54;;;;;;;5.13;2.42;;;;;;;;;;4995639;28;20046;-74
2021/12/02 04:44:22;;;;;;;3.92;1.80;;;;;;;;;;4994996;28;20060;-75
2021/12/02 04:46:51;;;;;;;6.03;2.42;;;;;;;;;;5013384;28;20046;-74
2021/12/02 04:49:19;;;;;;;5.15;1.73;;;;;;;;;;5012758;28;20045;-74
2021/12/02 04:51:46;;;;;;;5.65;2.05;;;;;;;;;;4995042;28;20046;-74
2021/12/02 04:54:14;;;;;;;7.13;1.98;;;;;;;;;;5012879;28;20038;-71
2021/12/02 04:56:41;;;;;;;6.40;2.08;;;;;;;;;;5012845;28;20486;-74
2021/12/02 04:59:09;;;;;;;7.47;2.60;;;;;;;;;;5012723;28;20045;-73
2021/12/02 05:01:36;;;;;;;5.38;2.65;;;;;;;;;;5012963;28;20540;-71
2021/12/02 05:04:05;;;;;;;7.85;3.35;;;;;;;;;;4995378;28;20070;-71
2021/12/02 05:06:32;;;;;;;11.20;4.35;;;;;;;;;;4995589;28;20406;-74
2021/12/02 05:09:00;;;;;;;9.60;5.00;;;;;;;;;;4995049;28;20073;-73
2021/12/02 05:11:28;;;;;;;9.52;5.10;;;;;;;;;;5012492;28;20046;-71
2021/12/02 05:13:55;;;;;;;13.35;5.40;;;;;;;;;;4995648;28;20041;-73
2021/12/02 05:16:23;;;;;;;8.38;5.10;;;;;;;;;;4994930;28;20041;-73
2021/12/02 05:18:50;;;;;;;11.07;5.18;;;;;;;;;;4995308;28;20144;-73
2021/12/02 05:21:18;;;;;;;13.02;5.10;;;;;;;;;;5012788;28;20489;-74
2021/12/02 05:23:49;;;;;;;9.35;4.85;;;;;;;;;;5013379;28;20041;-73
2021/12/02 05:26:16;;;;;;;14.85;5.95;;;;;;;;;;4994520;28;20046;-71
2021/12/02 05:28:44;;;;;;;10.10;5.90;;;;;;;;;;5012382;28;20045;-74
2021/12/02 05:31:11;;;;;;;11.45;4.72;;;;;;;;;;5013168;28;20117;-71
2021/12/02 05:33:39;;;;;;;12.77;5.03;;;;;;;;;;4998737;28;20042;-73
2021/12/02 05:36:06;;;;;;;9.35;5.50;;;;;;;;;;5016527;28;20038;-73
2021/12/02 05:38:34;;;;;;;13.90;5.85;;;;;;;;;;5015929;28;20145;-73
2021/12/02 05:41:03;;;;;;;15.90;5.88;;;;;;;;;;5015393;28;20042;-71
2021/12/02 05:43:31;;;;;;;12.77;6.80;;;;;;;;;;5016262;28;20129;-71
2021/12/02 05:45:58;;;;;;;20.88;7.30;;;;;;;;;;4998481;28;20580;-74
2021/12/02 05:48:26;;;;;;;13.80;5.45;;;;;;;;;;5013618;28;20129;-74
2021/12/02 05:50:53;;;;;;;13.27;5.75;;;;;;;;;;5000692;28;20121;-74
2021/12/02 05:53:21;;;;;;;14.93;6.07;;;;;;;;;;4995673;28;20038;-72
2021/12/02 05:55:48;;;;;;;15.55;6.07;;;;;;;;;;4996293;28;20034;-74
2021/12/02 05:58:16;;;;;;;13.55;4.60;;;;;;;;;;4978735;28;20081;-71
2021/12/02 06:00:44;;;;;;;9.70;5.40;;;;;;;;;;4996287;28;20121;-73
2021/12/02 06:03:11;;;;;;;18.88;5.88;;;;;;;;;;4996567;28;20402;-73
2021/12/02 06:05:39;;;;;;;17.13;4.20;;;;;;;;;;4996151;28;20053;-73
2021/12/02 06:08:07;;;;;;;12.93;4.20;;;;;;;;;;4995962;28;20477;-74
2021/12/02 06:10:35;;;;;;;13.50;4.13;;;;;;;;;;4978235;28;20041;-73
2021/12/02 06:13:02;;;;;;;10.75;3.55;;;;;;;;;;4963021;28;20406;-75
2021/12/02 06:15:30;;;;;;;14.80;4.53;;;;;;;;;;4979170;28;20129;-74
2021/12/02 06:17:57;;;;;;;10.35;3.70;;;;;;;;;;4995757;28;20045;-75
2021/12/02 06:20:25;;;;;;;19.45;3.63;;;;;;;;;;4978779;28;20046;-72
2021/12/02 06:22:53;;;;;;;13.07;3.83;;;;;;;;;;4978275;28;20046;-73
2021/12/02 06:27:52;;;;;;;10.85;3.80;;;;;;;;;;4978004;28;20510;-75
2021/12/02 06:30:21;;;;;;;10.70;3.63;;;;;;;;;;4977858;28;20482;-75
2021/12/02 06:32:49;;;;;;;13.25;3.85;;;;;;;;;;4977148;28;20517;-75
2021/12/02 06:35:17;;;;;;;27.15;9.27;;;;;;;;;;4977772;28;20051;-74
2021/12/02 06:37:46;;;;;;;20.35;5.85;;;;;;;;;;4977912;28;20558;-73
2021/12/02 06:40:15;;;;;;;23.45;5.57;;;;;;;;;;4994360;28;20050;-74
2021/12/02 06:42:45;;;;;;;24.20;6.32;;;;;;;;;;4978301;28;20090;-75
2021/12/02 06:45:13;;;;;;;20.75;5.85;;;;;;;;;;4977770;28;20057;-76
2021/12/02 06:47:46;;;;;;;37.60;7.25;;;;;;;;;;4979047;28;20557;-73
2021/12/02 06:50:17;;;;;;;22.67;7.32;;;;;;;;;;4978006;28;20042;-75
2021/12/02 06:52:45;;;;;;;36.33;7.80;;;;;;;;;;4994808;28;20046;-75
2021/12/02 06:55:13;;;;;;;41.25;10.48;;;;;;;;;;4977444;28;20045;-75
2021/12/02 06:57:40;;;;;;;45.15;10.63;;;;;;;;;;4995159;28;20390;-74
2021/12/02 07:00:10;;;;;;;33.95;10.20;;;;;;;;;;4978119;28;20058;-76
2021/12/02 07:02:38;;;;;;;36.85;9.40;;;;;;;;;;4995204;28;20070;-75
2021/12/02 07:05:07;;;;;;;40.08;8.98;;;;;;;;;;4994682;28;20046;-75
2021/12/02 07:07:36;;;;;;;33.40;10.00;;;;;;;;;;4994814;28;20042;-74
2021/12/02 07:10:09;;;;;;;41.92;10.57;;;;;;;;;;4961107;28;20069;-77
2021/12/02 07:12:41;;;;;;;36.53;10.75;;;;;;;;;;4977595;28;20097;-73
2021/12/02 07:15:20;;;;;;;51.28;11.23;;;;;;;;;;4977196;28;20566;-75
2021/12/02 07:17:54;;;;;;;39.15;10.80;;;;;;;;;;4994444;28;20222;-77
2021/12/02 07:20:21;;;;;;;37.10;10.95;;;;;;;;;;4995376;28;20145;-71
2021/12/02 07:22:49;;;;;;;38.92;8.75;;;;;;;;;;4994679;28;20053;-71
2021/12/02 07:25:18;;;;;;;42.95;8.23;;;;;;;;;;4977644;28;20057;-71
2021/12/02 07:27:47;;;;;;;35.33;6.60;;;;;;;;;;4976938;28;20034;-74
2021/12/02 07:30:15;;;;;;;42.15;5.95;;;;;;;;;;4999235;28;20040;-73
2021/12/02 07:32:46;;;;;;;36.17;5.78;;;;;;;;;;4980515;28;20045;-76
2021/12/02 07:35:17;;;;;;;26.85;5.68;;;;;;;;;;5009852;28;20197;-74
2021/12/02 07:37:46;;;;;;;54.10;6.82;;;;;;;;;;4973961;28;20093;-76
2021/12/02 07:40:15;;;;;;;50.08;6.22;;;;;;;;;;4976406;28;20507;-77
2021/12/02 07:42:44;;;;;;;60.33;6.30;;;;;;;;;;4995539;28;20076;-74
2021/12/02 07:45:12;;;;;;;47.85;5.30;;;;;;;;;;5013557;28;20069;-77
2021/12/02 07:47:40;;;;;;;55.67;5.72;;;;;;;;;;4996320;28;20052;-78
2021/12/02 07:50:09;;;;;;;45.30;5.53;;;;;;;;;;5013466;28;20042;-71
2021/12/02 07:52:40;;;;;;;59.70;7.53;;;;;;;;;;5012910;28;20068;-78
2021/12/02 07:55:08;;;;;;;48.72;6.55;;;;;;;;;;5012689;28;20062;-71
2021/12/02 07:57:37;;;;;;;51.78;5.07;;;;;;;;;;5013303;28;20103;-78
2021/12/02 08:00:05;;;;;;;59.70;5.63;;;;;;;;;;4994944;28;20042;-72
2021/12/02 08:02:35;;;;;;;50.78;6.28;;;;;;;;;;4995390;28;20038;-75
2021/12/02 08:05:03;;;;;;;38.15;4.97;;;;;;;;;;4995005;28;20042;-77
2021/12/02 08:07:33;;;;;;;59.70;6.25;;;;;;;;;;5072439;23;20829;-77
2021/12/02 08:10:03;;;;;;;56.97;5.22;;;;;;;;;;5011954;28;20052;-77
2021/12/02 08:12:30;;;;;;;52.55;6.07;;;;;;;;;;5012542;28;20327;-78
2021/12/02 08:14:58;;;;;;;48.03;5.28;;;;;;;;;;4995605;28;20081;-79
2021/12/02 08:17:25;;;;;;;52.00;5.35;;;;;;;;;;5013158;28;20045;-77
2021/12/02 08:19:53;;;;;;;51.72;4.97;;;;;;;;;;4995713;28;20044;-72
2021/12/02 08:22:21;;;;;;;64.32;5.60;;;;;;;;;;4995428;28;20042;-77
2021/12/02 08:24:48;;;;;;;78.43;5.68;;;;;;;;;;5012830;28;20501;-72
2021/12/02 08:27:16;;;;;;;70.32;6.18;;;;;;;;;;5013161;28;20113;-72
2021/12/02 08:29:46;;;;;;;58.65;5.65;;;;;;;;;;5012674;28;20076;-77
2021/12/02 08:32:14;;;;;;;66.03;7.32;;;;;;;;;;5013105;28;20493;-74
2021/12/02 08:34:43;;;;;;;70.60;7.32;;;;;;;;;;5004028;28;20046;-74
2021/12/02 08:37:11;;;;;;;53.03;5.63;;;;;;;;;;4982953;28;20045;-74
2021/12/02 08:39:41;;;;;;;67.35;5.65;;;;;;;;;;4964552;28;20049;-79
2021/12/02 08:42:09;;;;;;;59.50;6.82;;;;;;;;;;4980305;28;20081;-78
2021/12/02 08:44:40;;;;;;;72.65;6.55;;;;;;;;;;4982836;28;20066;-75
2021/12/02 08:47:09;;;;;;;62.97;6.25;;;;;;;;;;4992012;28;20121;-76
2021/12/02 08:49:38;;;;;;;58.67;6.50;;;;;;;;;;4991508;28;20049;-76
2021/12/02 08:52:05;;;;;;;67.25;7.60;;;;;;;;;;4993684;28;20038;-75
2021/12/02 08:54:33;;;;;;;78.25;8.43;;;;;;;;;;4988486;28;20049;-77
2021/12/02 08:57:00;;;;;;;64.60;6.05;;;;;;;;;;4979183;28;20039;-71
2021/12/02 08:59:28;;;;;;;73.47;6.80;;;;;;;;;;4983199;28;20053;-74
2021/12/02 09:01:57;;;;;;;62.58;7.03;;;;;;;;;;4973440;28;20490;-72
2021/12/02 09:04:25;;;;;;;57.88;5.60;;;;;;;;;;4972229;28;20046;-72
2021/12/02 09:06:52;;;;;;;66.10;6.57;;;;;;;;;;4975707;28;20043;-74
2021/12/02 09:09:25;;;;;;;67.97;6.68;;;;;;;;;;4993736;28;20046;-72
2021/12/02 09:11:55;;;;;;;68.73;6.03;;;;;;;;;;4979953;28;20097;-72
2021/12/02 09:14:23;;;;;;;65.03;6.57;;;;;;;;;;4979535;28;20498;-77
2021/12/02 09:16:51;;;;;;;63.45;6.63;;;;;;;;;;4994956;28;20050;-72
2021/12/02 09:19:21;;;;;;;62.20;6.18;;;;;;;;;;4995128;28;20042;-72
2021/12/02 09:21:48;;;;;;;50.05;5.70;;;;;;;;;;4995786;28;20046;-76
2021/12/02 09:24:18;;;;;;;63.47;5.70;;;;;;;;;;4967694;28;20043;-72
2021/12/02 09:26:47;;;;;;;59.55;5.88;;;;;;;;;;4983439;28;20121;-73
2021/12/02 09:29:16;;;;;;;68.80;6.95;;;;;;;;;;4959858;28;20053;-72
2021/12/02 09:31:44;;;;;;;81.07;7.20;;;;;;;;;;4977169;28;20068;-72
2021/12/02 09:34:12;;;;;;;71.15;6.25;;;;;;;;;;4977152;28;20052;-72
2021/12/02 09:36:40;;;;;;;70.50;5.70;;;;;;;;;;4991322;28;20072;-71
2021/12/02 09:39:08;;;;;;;55.13;6.95;;;;;;;;;;4992847;28;20461;-73
2021/12/02 09:41:36;;;;;;;68.82;6.63;;;;;;;;;;4996281;28;20038;-74
2021/12/02 09:44:05;;;;;;;57.03;6.15;;;;;;;;;;4996871;28;20058;-75
2021/12/02 09:46:34;;;;;;;67.18;7.03;;;;;;;;;;4996504;28;20070;-74
2021/12/02 09:49:03;;;;;;;64.75;6.45;;;;;;;;;;4995714;28;20427;-73
2021/12/02 09:51:38;;;;;;;57.63;5.35;;;;;;;;;;4996214;28;20117;-77
2021/12/02 09:54:38;;;;;;;67.20;6.55;;;;;;;;;;4995214;28;20461;-77
2021/12/02 09:57:10;;;;;;;52.95;5.32;;;;;;;;;;4996496;28;20073;-72
2021/12/02 10:02:11;;;;;;;58.75;5.65;;;;;;;;;;4995537;28;20046;-73
2021/12/02 10:05:02;;;;;;;56.75;6.35;;;;;;;;;;4994704;28;20472;-72
2021/12/02 10:10:14;;;;;;;65.25;6.50;;;;;;;;;;4996143;28;20034;-74
2021/12/02 10:13:03;;;;;;;58.35;6.10;;;;;;;;;;4996062;28;20077;-78
2021/12/02 10:15:31;;;;;;;56.45;5.07;;;;;;;;;;4995866;28;20165;-75
2021/12/02 10:18:09;;;;;;;72.80;6.88;;;;;;;;;;4994493;28;20049;-73
2021/12/02 10:20:43;;;;;;;64.43;7.13;;;;;;;;;;4996170;28;20042;-73
2021/12/02 10:23:17;;;;;;;57.28;6.03;;;;;;;;;;4996203;28;20212;-75
2021/12/02 10:25:45;;;;;;;62.20;7.20;;;;;;;;;;4995869;28;20034;-75
2021/12/02 10:28:14;;;;;;;70.47;6.70;;;;;;;;;;4994282;28;20042;-75
2021/12/02 10:30:48;;;;;;;61.67;6.78;;;;;;;;;;4994595;28;20042;-74
2021/12/02 10:33:28;;;;;;;64.20;6.15;;;;;;;;;;4994560;28;20042;-74
2021/12/02 10:35:56;;;;;;;66.68;6.53;;;;;;;;;;4994235;28;20042;-77
2021/12/02 10:38:34;;;;;;;60.40;5.30;;;;;;;;;;4994086;28;20551;-76
2021/12/02 10:41:04;;;;;;;62.25;6.78;;;;;;;;;;4993340;28;20062;-74
2021/12/02 10:43:31;;;;;;;68.10;7.82;;;;;;;;;;4993439;28;20133;-74
2021/12/02 10:46:15;;;;;;;69.50;6.63;;;;;;;;;;4991559;28;20056;-71
2021/12/02 10:48:44;;;;;;;58.63;6.13;;;;;;;;;;4994120;28;20046;-73
2021/12/02 10:51:31;;;;;;;64.15;6.82;;;;;;;;;;4994091;28;20406;-74
2021/12/02 10:54:00;;;;;;;53.33;6.25;;;;;;;;;;4995008;28;20050;-72
2021/12/02 10:56:35;;;;;;;65.13;7.90;;;;;;;;;;4995190;28;20413;-74
2021/12/02 10:59:22;;;;;;;58.47;6.70;;;;;;;;;;4994918;28;20509;-74
2021/12/02 11:01:51;;;;;;;64.25;6.15;;;;;;;;;;4993359;28;20078;-71
2021/12/02 11:04:20;;;;;;;60.40;6.65;;;;;;;;;;4961335;28;20506;-71
2021/12/02 11:06:48;;;;;;;47.30;5.03;;;;;;;;;;4994740;28;20395;-74
2021/12/02 11:09:46;;;;;;;59.00;5.78;;;;;;;;;;4993228;28;20050;-72
2021/12/02 11:12:16;;;;;;;59.17;6.32;;;;;;;;;;4979342;28;20077;-74
2021/12/02 11:14:52;;;;;;;56.00;6.65;;;;;;;;;;4994072;28;20045;-74
2021/12/02 11:17:21;;;;;;;62.42;6.13;;;;;;;;;;4985219;28;20084;-74
2021/12/02 11:19:49;;;;;;;56.70;6.32;;;;;;;;;;4984211;28;20125;-71
2021/12/02 11:22:22;;;;;;;47.05;5.20;;;;;;;;;;4997764;28;20061;-71
2021/12/02 11:24:50;;;;;;;52.17;5.40;;;;;;;;;;4969122;28;20046;-74
2021/12/02 11:27:30;;;;;;;53.92;6.65;;;;;;;;;;4976362;28;20091;-76
2021/12/02 11:29:57;;;;;;;63.17;6.15;;;;;;;;;;4972685;28;20046;-75
2021/12/02 11:32:26;;;;;;;67.82;6.35;;;;;;;;;;4974799;28;20042;-74
2021/12/02 11:35:00;;;;;;;72.13;6.85;;;;;;;;;;4973471;28;20503;-74
2021/12/02 11:37:28;;;;;;;49.28;5.60;;;;;;;;;;4974885;28;20038;-75
2021/12/02 11:39:58;;;;;;;54.58;5.18;;;;;;;;;;4974770;28;20090;-71
2021/12/02 11:42:26;;;;;;;53.20;5.47;;;;;;;;;;4974499;28;20049;-71
2021/12/02 11:44:54;;;;;;;63.58;5.90;;;;;;;;;;4974232;28;20047;-75
2021/12/02 11:47:22;;;;;;;60.08;5.78;;;;;;;;;;4974452;28;20046;-71
2021/12/02 11:49:50;;;;;;;69.22;6.72;;;;;;;;;;4957223;28;20043;-75
2021/12/02 11:52:17;;;;;;;64.90;6.55;;;;;;;;;;4974589;28;20042;-74
2021/12/02 11:54:45;;;;;;;63.78;6.40;;;;;;;;;;4972769;28;20043;-75
2021/12/02 11:57:13;;;;;;;58.90;5.53;;;;;;;;;;4974399;28;20053;-74
2021/12/02 11:59:40;;;;;;;64.88;6.15;;;;;;;;;;4974266;28;20043;-76
2021/12/02 12:02:08;;;;;;;70.90;6.10;;;;;;;;;;4973670;28;20594;-74
2021/12/02 12:04:38;;;;;;;61.85;6.25;;;;;;;;;;4969155;28;20053;-75
2021/12/02 12:07:11;;;;;;;57.03;6.00;;;;;;;;;;4977676;28;20068;-74
2021/12/02 12:09:39;;;;;;;64.77;6.27;;;;;;;;;;4975398;28;20054;-74
2021/12/02 12:12:07;;;;;;;69.72;6.35;;;;;;;;;;4992152;28;20305;-73
2021/12/02 12:14:39;;;;;;;51.38;5.72;;;;;;;;;;4975240;28;20469;-74
2021/12/02 12:17:14;;;;;;;63.85;6.47;;;;;;;;;;4991600;28;20049;-73
2021/12/02 12:19:50;;;;;;;58.67;4.90;;;;;;;;;;4992072;28;20055;-74
2021/12/02 12:22:29;;;;;;;60.50;6.78;;;;;;;;;;4992060;28;20042;-73
2021/12/02 12:25:00;;;;;;;45.92;4.40;;;;;;;;;;4975447;28;20137;-74
2021/12/02 12:27:29;;;;;;;52.25;4.82;;;;;;;;;;4975016;28;20050;-72
2021/12/02 12:30:14;;;;;;;54.78;5.55;;;;;;;;;;4991548;28;20042;-71
2021/12/02 12:35:51;;;;;;;45.42;5.30;;;;;;;;;;4992674;28;20054;-74
2021/12/02 12:38:23;;;;;;;57.30;5.43;;;;;;;;;;4992738;28;20100;-71
2021/12/02 12:40:57;;;;;;;55.65;6.03;;;;;;;;;;4990815;28;20046;-74
2021/12/02 12:43:28;;;;;;;40.00;4.65;;;;;;;;;;4992945;28;20125;-74
2021/12/02 12:46:15;;;;;;;56.00;4.93;;;;;;;;;;4993600;28;20047;-73
2021/12/02 12:48:43;;;;;;;58.58;4.65;;;;;;;;;;4975701;28;20047;-71
2021/12/02 12:51:15;;;;;;;57.25;5.00;;;;;;;;;;4992349;28;20077;-71
2021/12/02 12:53:44;;;;;;;51.17;4.45;;;;;;;;;;4975437;28;20046;-74
2021/12/02 12:56:13;;;;;;;48.53;5.00;;;;;;;;;;4992768;28;20042;-71
2021/12/02 12:58:57;;;;;;;42.20;4.20;;;;;;;;;;4975253;28;20470;-71
2021/12/02 13:01:26;;;;;;;55.10;4.65;;;;;;;;;;4993520;28;20042;-74
2021/12/02 13:04:08;;;;;;;49.30;5.05;;;;;;;;;;4993371;28;20042;-71
2021/12/02 13:06:48;;;;;;;60.10;5.38;;;;;;;;;;4992854;28;20042;-74
2021/12/02 13:09:35;;;;;;;42.42;4.82;;;;;;;;;;4992711;28;20078;-74
2021/12/02 13:12:04;;;;;;;44.60;4.68;;;;;;;;;;4992713;28;20039;-75
2021/12/02 13:14:33;;;;;;;56.38;5.97;;;;;;;;;;4992888;28;20046;-71
2021/12/02 13:17:02;;;;;;;50.65;4.93;;;;;;;;;;4992733;28;20043;-75
2021/12/02 13:19:30;;;;;;;55.40;4.78;;;;;;;;;;4993452;28;20105;-74
2021/12/02 13:21:58;;;;;;;58.72;5.15;;;;;;;;;;4992238;28;20042;-74
2021/12/02 13:24:37;;;;;;;61.80;5.28;;;;;;;;;;4992033;28;20043;-74
2021/12/02 13:27:08;;;;;;;47.88;4.70;;;;;;;;;;4992939;28;20050;-74
2021/12/02 13:29:39;;;;;;;70.28;5.50;;;;;;;;;;4992489;28;20070;-73
2021/12/02 13:32:09;;;;;;;48.08;6.88;;;;;;;;;;4991812;28;20046;-74
2021/12/02 13:34:37;;;;;;;50.40;5.07;;;;;;;;;;4992663;28;20038;-74
2021/12/02 13:37:05;;;;;;;65.30;6.03;;;;;;;;;;4992704;28;20042;-73
2021/12/02 13:39:37;;;;;;;45.60;4.40;;;;;;;;;;4992748;28;20486;-73
2021/12/02 13:42:07;;;;;;;68.53;5.95;;;;;;;;;;4991385;28;20547;-73
2021/12/02 13:44:38;;;;;;;52.97;6.10;;;;;;;;;;4991208;28;20470;-74
2021/12/02 13:47:15;;;;;;;54.50;6.00;;;;;;;;;;4993027;28;20141;-74
2021/12/02 13:49:48;;;;;;;62.13;6.22;;;;;;;;;;4992415;28;20041;-70
2021/12/02 13:54:56;;;;;;;47.13;4.72;;;;;;;;;;4995778;28;20092;-72
2021/12/02 13:57:38;;;;;;;48.13;5.45;;;;;;;;;;4994895;28;20072;-74
2021/12/02 14:00:08;;;;;;;60.38;6.22;;;;;;;;;;4994442;28;20132;-74
2021/12/02 14:02:39;;;;;;;66.88;6.22;;;;;;;;;;4983870;28;20514;-71
2021/12/02 14:05:08;;;;;;;64.95;5.20;;;;;;;;;;4975243;28;20426;-73
2021/12/02 14:07:37;;;;;;;56.47;5.55;;;;;;;;;;4975198;28;20042;-73
2021/12/02 14:10:08;;;;;;;58.80;5.95;;;;;;;;;;4976346;28;20125;-71
2021/12/02 14:12:38;;;;;;;59.35;5.82;;;;;;;;;;4976559;28;20046;-73
2021/12/02 14:15:11;;;;;;;67.32;7.35;;;;;;;;;;4977410;28;20437;-73
2021/12/02 14:17:50;;;;;;;43.58;4.88;;;;;;;;;;4995991;28;20117;-73
2021/12/02 14:20:19;;;;;;;45.05;4.25;;;;;;;;;;4978299;28;20481;-72
2021/12/02 14:22:48;;;;;;;59.10;7.03;;;;;;;;;;4995720;28;20138;-71
2021/12/02 14:25:16;;;;;;;69.85;6.18;;;;;;;;;;4995530;28;20046;-73
2021/12/02 14:28:05;;;;;;;64.47;6.05;;;;;;;;;;4995894;28;20043;-75
2021/12/02 14:30:37;;;;;;;56.75;5.80;;;;;;;;;;4994758;28;20038;-74
2021/12/02 14:33:06;;;;;;;59.22;5.43;;;;;;;;;;4994505;28;20046;-71
2021/12/02 14:35:41;;;;;;;58.05;5.88;;;;;;;;;;4977736;28;20049;-74
2021/12/02 14:38:27;;;;;;;50.53;6.15;;;;;;;;;;4993769;28;20038;-74
2021/12/02 14:41:00;;;;;;;54.17;5.78;;;;;;;;;;4981208;28;20533;-73
2021/12/02 14:43:31;;;;;;;60.92;6.15;;;;;;;;;;5014604;28;20041;-74
2021/12/02 14:46:18;;;;;;;64.30;5.88;;;;;;;;;;4997329;28;20409;-73
2021/12/02 14:48:47;;;;;;;55.70;5.97;;;;;;;;;;4997566;28;20133;-70
2021/12/02 14:51:15;;;;;;;63.70;5.47;;;;;;;;;;4997868;28;20385;-74
2021/12/02 14:53:45;;;;;;;59.53;6.05;;;;;;;;;;5014748;28;20034;-70
2021/12/02 14:56:30;;;;;;;71.22;6.88;;;;;;;;;;4997704;28;20137;-72
2021/12/02 14:59:20;;;;;;;62.97;5.82;;;;;;;;;;4997138;28;20084;-71
2021/12/02 15:02:00;;;;;;;48.20;4.68;;;;;;;;;;5013634;28;20041;-74
2021/12/02 15:04:29;;;;;;;50.38;6.13;;;;;;;;;;5012810;28;20037;-74
2021/12/02 15:07:04;;;;;;;42.72;4.90;;;;;;;;;;4996304;28;20046;-73
2021/12/02 15:09:36;;;;;;;75.03;6.07;;;;;;;;;;5012857;28;20053;-74
2021/12/02 15:12:15;;;;;;;52.22;5.93;;;;;;;;;;4996818;28;20086;-73
2021/12/02 15:14:44;;;;;;;57.58;5.22;;;;;;;;;;5014067;28;20060;-73
2021/12/02 15:17:13;;;;;;;64.03;6.32;;;;;;;;;;5012058;28;20038;-71
2021/12/02 15:19:46;;;;;;;50.22;4.53;;;;;;;;;;5014429;28;20042;-74